createdAt,value
2018-07-11T00:00:02.774Z,99020.82
2018-07-11T00:03:06.026Z,99017.23
2018-07-11T00:06:09.102Z,99015.60
2018-07-11T00:09:12.221Z,99026.57
2018-07-11T00:12:15.307Z,99022.49
2018-07-11T00:15:18.568Z,99022.69
2018-07-11T00:18:21.852Z,99025.03
2018-07-11T00:21:25.226Z,99019.65
2018-07-11T00:24:28.356Z,99017.07
2018-07-11T00:27:31.715Z,99009.07
2018-07-11T00:30:34.846Z,99001.72
2018-07-11T00:33:38.018Z,99017.55
2018-07-11T00:36:41.056Z,99014.05
2018-07-11T00:39:44.229Z,99030.01
2018-07-11T00:42:47.512Z,99034.45
2018-07-11T00:45:51.082Z,99030.12
2018-07-11T00:48:54.363Z,99036.00
2018-07-11T00:51:57.580Z,99043.25
2018-07-11T00:55:00.613Z,99036.42
2018-07-11T00:58:43.498Z,99033.17
2018-07-11T01:01:47.081Z,99039.97
2018-07-11T01:04:50.229Z,99039.47
2018-07-11T01:07:53.455Z,99034.41
2018-07-11T01:10:59.332Z,99050.88
2018-07-11T01:14:02.540Z,99047.97
2018-07-11T01:17:10.222Z,99062.53
2018-07-11T01:20:13.429Z,99065.16
2018-07-11T01:23:16.643Z,99084.14
2018-07-11T01:26:24.892Z,99063.05
2018-07-11T01:29:29.079Z,99066.49
2018-07-11T01:32:32.289Z,99068.86
2018-07-11T01:35:36.363Z,99066.88
2018-07-11T01:38:39.550Z,99066.15
2018-07-11T01:41:42.836Z,99064.72
2018-07-11T01:44:47.208Z,99060.70
2018-07-11T01:47:51.430Z,99057.80
2018-07-11T01:50:54.678Z,99058.80
2018-07-11T01:53:57.825Z,99051.64
2018-07-11T01:57:02.937Z,99053.29
2018-07-11T02:00:07.121Z,99056.57
2018-07-11T02:03:10.286Z,99065.05
2018-07-11T02:06:15.382Z,99064.37
2018-07-11T02:09:18.683Z,99025.74
2018-07-11T02:12:21.749Z,99027.95
2018-07-11T02:15:25.881Z,99036.40
2018-07-11T02:18:29.759Z,99040.62
2018-07-11T02:21:34.861Z,99049.27
2018-07-11T02:24:37.904Z,99051.50
2018-07-11T02:27:42.047Z,99051.47
2018-07-11T02:30:47.288Z,99054.47
2018-07-11T02:33:50.341Z,99049.76
2018-07-11T02:36:53.499Z,99064.84
2018-07-11T02:39:56.818Z,99055.78
2018-07-11T02:43:00.011Z,99061.34
2018-07-11T02:46:03.065Z,99059.25
2018-07-11T02:49:06.208Z,99070.37
2018-07-11T02:52:09.248Z,99072.96
2018-07-11T02:55:12.419Z,99067.69
2018-07-11T02:58:15.601Z,99064.75
2018-07-11T03:01:19.799Z,99070.34
2018-07-11T03:04:24.263Z,99073.75
2018-07-11T03:13:28.284Z,99078.75
2018-07-11T03:16:31.694Z,99064.37
2018-07-11T03:19:34.987Z,99073.13
2018-07-11T03:22:39.399Z,99069.58
2018-07-11T03:25:42.699Z,99063.44
2018-07-11T03:28:45.866Z,99069.29
2018-07-11T03:31:49.192Z,99060.25
2018-07-11T03:34:53.532Z,99062.56
2018-07-11T03:37:56.699Z,99069.96
2018-07-11T03:41:00.292Z,99070.97
2018-07-11T03:44:03.743Z,99071.63
2018-07-11T03:47:07.119Z,99071.78
2018-07-11T03:50:10.426Z,99081.55
2018-07-11T03:53:13.803Z,99082.19
2018-07-11T03:56:16.867Z,99083.72
2018-07-11T03:59:20.177Z,99079.30
2018-07-11T04:02:23.444Z,99091.31
2018-07-11T04:05:26.835Z,99088.07
2018-07-11T04:08:30.179Z,99094.20
2018-07-11T04:11:33.474Z,99097.21
2018-07-11T04:14:37.623Z,99103.47
2018-07-11T04:17:41.744Z,99095.34
2018-07-11T04:20:44.921Z,99098.38
2018-07-11T04:23:48.513Z,99078.42
2018-07-11T04:26:52.109Z,99054.31
2018-07-11T04:29:55.232Z,99060.52
2018-07-11T04:32:58.472Z,99052.86
2018-07-11T04:36:01.650Z,99089.09
2018-07-11T04:39:04.922Z,99105.12
2018-07-11T04:42:08.443Z,99098.03
2018-07-11T04:45:11.868Z,99100.09
2018-07-11T04:48:15.328Z,99086.81
2018-07-11T04:51:18.773Z,99094.77
2018-07-11T04:54:22.158Z,99089.95
2018-07-11T04:57:26.601Z,99089.34
2018-07-11T05:00:31.937Z,99121.34
2018-07-11T05:03:35.102Z,99114.32
2018-07-11T05:06:38.428Z,99123.59
2018-07-11T05:09:41.842Z,99117.58
2018-07-11T05:12:45.124Z,99125.22
2018-07-11T05:15:48.338Z,99118.94
2018-07-11T05:18:51.534Z,99127.29
2018-07-11T05:21:54.849Z,99143.38
2018-07-11T05:24:59.350Z,99141.98
2018-07-11T05:28:02.672Z,99138.85
2018-07-11T05:31:06.826Z,99138.55
2018-07-11T05:34:09.918Z,99135.23
2018-07-11T05:37:14.068Z,99139.14
2018-07-11T05:40:17.336Z,99133.31
2018-07-11T05:43:22.416Z,99130.27
2018-07-11T05:46:26.562Z,99134.82
2018-07-11T05:49:29.987Z,99147.41
2018-07-11T05:52:33.281Z,99178.13
2018-07-11T05:55:36.680Z,99170.25
2018-07-11T05:58:41.129Z,99168.05
2018-07-11T06:01:44.473Z,99166.22
2018-07-11T06:04:47.578Z,99179.53
2018-07-11T06:07:52.708Z,99171.44
2018-07-11T06:10:56.766Z,99171.59
2018-07-11T06:14:01.978Z,99163.22
2018-07-11T06:17:05.227Z,99161.81
2018-07-11T06:20:08.730Z,99163.09
2018-07-11T06:23:12.039Z,99169.52
2018-07-11T06:26:17.391Z,99169.98
2018-07-11T06:29:20.749Z,99174.02
2018-07-11T06:32:24.078Z,99176.01
2018-07-11T06:35:27.437Z,99183.83
2018-07-11T06:38:30.396Z,99192.21
2018-07-11T06:41:34.588Z,99187.16
2018-07-11T06:44:37.849Z,99197.94
2018-07-11T06:47:40.914Z,99199.19
2018-07-11T06:50:46.328Z,99207.39
2018-07-11T06:53:50.765Z,99199.31
2018-07-11T06:56:54.002Z,99208.45
2018-07-11T06:59:57.274Z,99211.09
2018-07-11T07:03:01.592Z,99217.79
2018-07-11T07:06:09.637Z,99210.27
2018-07-11T07:09:13.773Z,99223.89
2018-07-11T07:12:16.903Z,99213.28
2018-07-11T07:15:23.555Z,99217.56
2018-07-11T07:18:26.755Z,99213.00
2018-07-11T07:21:34.469Z,99213.42
2018-07-11T07:24:37.523Z,99225.80
2018-07-11T07:27:40.733Z,99219.02
2018-07-11T07:30:45.204Z,99222.16
2018-07-11T07:33:48.691Z,99208.75
2018-07-11T07:36:52.040Z,99205.14
2018-07-11T07:40:05.926Z,99213.03
2018-07-11T07:43:09.002Z,99214.36
2018-07-11T07:46:13.274Z,99218.48
2018-07-11T07:49:16.577Z,99219.00
2018-07-11T07:52:20.774Z,99213.80
2018-07-11T07:55:27.736Z,99217.85
2018-07-11T07:58:31.005Z,99219.52
2018-07-11T08:01:36.484Z,99217.08
2018-07-11T08:04:40.978Z,99220.95
2018-07-11T08:07:47.743Z,99214.95
2018-07-11T08:10:51.114Z,99217.77
2018-07-11T08:13:54.539Z,99220.02
2018-07-11T08:16:58.994Z,99212.61
2018-07-11T08:20:02.429Z,99233.02
2018-07-11T08:23:18.181Z,99224.81
2018-07-11T08:26:33.822Z,99229.11
2018-07-11T08:30:20.435Z,99228.51
2018-07-11T08:33:39.711Z,99222.56
2018-07-11T08:41:02.335Z,99218.04
2018-07-11T08:49:44.285Z,99216.78
2018-07-11T08:53:02.393Z,99182.34
2018-07-11T08:58:24.910Z,99247.38
2018-07-11T09:01:39.165Z,99316.81
2018-07-11T09:05:11.010Z,99326.44
2018-07-11T09:08:32.855Z,99316.84
2018-07-11T09:11:44.733Z,99326.84
2018-07-11T09:20:34.417Z,99351.03
2018-07-11T09:23:49.559Z,99292.38
2018-07-11T09:26:52.706Z,99315.02
2018-07-11T09:30:03.433Z,99307.80
2018-07-11T09:33:06.470Z,99323.24
2018-07-11T09:36:09.549Z,99316.73
2018-07-11T09:39:12.632Z,99313.34
2018-07-11T09:42:15.852Z,99318.61
2018-07-11T09:45:19.159Z,99324.47
2018-07-11T09:48:22.333Z,99310.41
2018-07-11T09:51:25.385Z,99314.11
2018-07-11T09:54:28.501Z,99309.45
2018-07-11T09:57:33.252Z,99310.25
2018-07-11T10:00:44.153Z,99310.70
2018-07-11T10:03:47.602Z,99308.71
2018-07-11T10:06:50.790Z,99300.59
2018-07-11T10:09:54.290Z,99303.78
2018-07-11T10:12:57.683Z,99313.22
2018-07-11T10:16:00.725Z,99313.52
2018-07-11T10:19:04.716Z,99327.78
2018-07-11T10:22:07.878Z,99323.78
2018-07-11T10:25:10.889Z,99323.89
2018-07-11T10:28:17.080Z,99316.94
2018-07-11T10:31:20.345Z,99322.35
2018-07-11T10:34:23.687Z,99331.05
2018-07-11T10:37:27.135Z,99326.69
2018-07-11T10:40:30.322Z,99324.31
2018-07-11T10:43:33.617Z,99327.80
2018-07-11T10:46:36.801Z,99324.36
2018-07-11T10:49:40.372Z,99317.38
2018-07-11T10:52:43.500Z,99317.48
2018-07-11T10:55:46.762Z,99313.41
2018-07-11T10:58:49.821Z,99314.56
2018-07-11T11:01:52.890Z,99306.81
2018-07-11T11:04:56.167Z,99309.45
2018-07-11T11:08:00.421Z,99313.72
2018-07-11T11:11:03.599Z,99309.25
2018-07-11T11:14:07.950Z,99309.23
2018-07-11T11:17:11.427Z,99304.67
2018-07-11T11:20:14.661Z,99307.83
2018-07-11T11:23:18.212Z,99332.53
2018-07-11T11:26:21.696Z,99111.45
2018-07-11T11:29:24.967Z,99104.80
2018-07-11T11:32:28.230Z,99107.44
2018-07-11T11:35:31.505Z,99097.50
2018-07-11T11:38:34.931Z,99112.53
2018-07-11T11:41:38.417Z,99088.20
2018-07-11T11:44:41.817Z,99086.25
2018-07-11T11:47:44.905Z,99086.45
2018-07-11T11:50:48.097Z,99086.97
2018-07-11T11:53:51.351Z,99087.27
2018-07-11T11:56:54.706Z,99086.63
2018-07-11T11:59:58.081Z,99090.14
2018-07-11T12:03:01.330Z,99081.50
2018-07-11T12:06:04.787Z,99088.52
2018-07-11T12:09:08.601Z,99083.66
2018-07-11T12:12:11.741Z,99083.08
2018-07-11T12:15:15.084Z,99085.25
2018-07-11T12:18:18.350Z,99082.18
2018-07-11T12:21:21.589Z,99081.36
2018-07-11T12:24:24.867Z,99080.28
2018-07-11T12:27:28.129Z,99088.19
2018-07-11T12:30:31.672Z,99084.83
2018-07-11T12:33:34.972Z,99090.75
2018-07-11T12:36:38.365Z,99096.05
2018-07-11T12:39:41.596Z,99096.20
2018-07-11T12:42:45.221Z,99105.06
2018-07-11T12:45:48.489Z,99107.20
2018-07-11T12:48:57.463Z,99109.71
2018-07-11T12:52:00.740Z,99122.55
2018-07-11T12:55:03.860Z,99121.11
2018-07-11T12:58:07.200Z,99121.47
2018-07-11T13:01:10.460Z,99122.64
2018-07-11T13:04:13.567Z,99112.91
2018-07-11T13:07:16.696Z,99113.81
2018-07-11T13:10:20.019Z,99118.28
2018-07-11T13:13:23.107Z,99115.29
2018-07-11T13:16:26.336Z,99106.91
2018-07-11T13:19:29.527Z,99111.11
2018-07-11T13:22:32.835Z,99110.42
2018-07-11T13:25:36.247Z,99104.34
2018-07-11T13:28:39.425Z,99102.62
2018-07-11T13:31:42.961Z,99104.39
2018-07-11T13:34:46.394Z,99102.30
2018-07-11T13:37:49.608Z,99104.36
2018-07-11T13:40:52.794Z,99099.74
2018-07-11T13:43:56.216Z,99091.72
2018-07-11T13:46:59.508Z,99100.16
2018-07-11T13:50:02.827Z,99101.20
2018-07-11T13:53:06.138Z,99091.68
2018-07-11T13:56:09.394Z,99085.02
2018-07-11T13:59:12.537Z,99086.47
2018-07-11T14:02:15.901Z,99081.26
2018-07-11T14:05:19.593Z,99084.55
2018-07-11T14:08:22.952Z,99078.77
2018-07-11T14:11:26.174Z,99083.52
2018-07-11T14:14:29.466Z,99085.06
2018-07-11T14:17:32.637Z,99080.22
2018-07-11T14:20:36.035Z,99082.12
2018-07-11T14:23:42.105Z,99078.89
2018-07-11T14:26:45.563Z,99072.70
2018-07-11T14:29:49.092Z,99082.07
2018-07-11T14:32:55.635Z,99088.83
2018-07-11T14:35:59.513Z,99089.45
2018-07-11T14:39:04.221Z,99088.13
2018-07-11T14:42:07.579Z,99092.41
2018-07-11T14:45:10.823Z,99095.72
2018-07-11T14:48:15.456Z,99103.88
2018-07-11T14:51:18.747Z,99103.91
2018-07-11T14:54:21.933Z,99103.97
2018-07-11T14:57:25.347Z,99095.28
2018-07-11T15:00:29.676Z,99108.59
2018-07-11T15:03:32.959Z,99099.95
2018-07-11T15:06:36.073Z,99095.92
2018-07-11T15:09:39.142Z,99095.12
2018-07-11T15:12:42.315Z,99093.52
2018-07-11T15:15:45.689Z,99094.14
2018-07-11T15:19:51.756Z,99089.75
2018-07-11T15:22:55.188Z,99089.31
2018-07-11T15:25:58.531Z,99086.07
2018-07-11T15:29:01.705Z,99083.95
2018-07-11T15:32:05.102Z,99088.06
2018-07-11T15:35:09.940Z,99085.20
2018-07-11T15:38:14.479Z,99081.73
2018-07-11T15:41:17.713Z,99089.10
2018-07-11T15:44:20.934Z,99085.20
2018-07-11T15:47:24.641Z,99094.91
2018-07-11T15:50:27.925Z,99090.33
2018-07-11T15:53:31.191Z,99102.16
2018-07-11T15:56:35.313Z,99103.80
2018-07-11T15:59:47.521Z,99103.61
2018-07-11T16:02:51.604Z,99111.31
2018-07-11T16:05:55.215Z,99097.98
2018-07-11T16:09:04.169Z,99095.70
2018-07-11T16:12:07.706Z,99101.73
2018-07-11T16:15:11.296Z,99095.66
2018-07-11T16:18:15.675Z,99084.60
2018-07-11T16:21:18.942Z,99088.63
2018-07-11T16:24:22.218Z,99080.48
2018-07-11T16:27:25.463Z,99090.95
2018-07-11T16:30:28.903Z,99086.27
2018-07-11T16:33:32.155Z,99092.58
2018-07-11T16:36:37.495Z,99081.61
2018-07-11T16:39:41.935Z,99077.14
2018-07-11T16:42:45.330Z,99090.58
2018-07-11T16:45:49.633Z,99085.95
2018-07-11T16:48:53.321Z,99089.12
2018-07-11T16:51:56.878Z,99095.30
2018-07-11T16:55:03.444Z,99087.28
2018-07-11T16:58:08.650Z,99087.28
2018-07-11T17:01:12.120Z,99090.73
2018-07-11T17:04:15.353Z,99097.34
2018-07-11T17:07:19.335Z,99085.77
2018-07-11T17:10:23.723Z,99089.02
2018-07-11T17:13:26.857Z,99089.11
2018-07-11T17:17:05.379Z,99088.19
2018-07-11T17:20:10.741Z,99092.05
2018-07-11T17:23:13.868Z,99093.17
2018-07-11T17:26:18.594Z,99101.47
2018-07-11T17:29:25.115Z,99095.56
2018-07-11T17:32:30.194Z,99098.09
2018-07-11T17:35:33.708Z,99091.70
2018-07-11T17:38:37.053Z,99096.78
2018-07-11T17:41:40.530Z,99095.05
2018-07-11T17:44:48.081Z,99083.38
2018-07-11T17:48:00.649Z,99087.64
2018-07-11T17:51:08.886Z,99081.66
2018-07-11T17:54:12.243Z,99082.67
2018-07-11T17:57:23.908Z,99084.29
2018-07-11T18:00:38.281Z,99087.94
2018-07-11T18:04:06.417Z,99087.73
2018-07-11T18:07:13.740Z,99090.55
2018-07-11T18:10:30.162Z,99088.09
2018-07-11T18:13:37.819Z,99091.50
2018-07-11T18:18:55.109Z,99093.65
2018-07-11T18:24:19.728Z,99101.16
2018-07-11T18:27:37.306Z,99101.25
2018-07-11T18:32:55.179Z,99102.66
2018-07-11T18:36:08.661Z,99096.20
2018-07-11T18:39:20.906Z,99097.20
2018-07-11T18:42:46.621Z,99106.25
2018-07-11T18:46:00.936Z,99107.75
2018-07-11T18:49:24.049Z,99098.20
2018-07-11T18:52:31.954Z,99097.87
2018-07-11T18:57:43.174Z,99100.59
2018-07-11T19:00:58.488Z,99106.05
2018-07-11T19:04:14.106Z,99108.89
2018-07-11T19:09:30.561Z,99104.94
2018-07-11T19:12:45.540Z,99099.86
2018-07-11T19:15:53.700Z,99097.51
2018-07-11T19:19:05.913Z,99098.52
2018-07-11T19:22:17.319Z,99096.39
2018-07-11T19:25:30.046Z,99091.23
2018-07-11T19:28:44.003Z,99088.48
2018-07-11T19:31:57.813Z,99093.92
2018-07-11T19:35:08.021Z,99095.44
2018-07-11T19:38:34.647Z,99089.35
2018-07-11T19:41:47.195Z,99095.94
2018-07-11T19:49:06.433Z,99099.38
2018-07-11T19:52:21.429Z,99091.73
2018-07-11T19:56:33.436Z,99099.02
2018-07-11T19:59:36.686Z,99099.45
2018-07-11T20:02:39.938Z,99098.23
2018-07-11T20:05:53.343Z,99096.33
2018-07-11T20:08:48.023Z,99099.38
2018-07-11T20:11:51.222Z,99095.43
2018-07-11T20:14:54.450Z,99097.78
2018-07-11T20:17:57.519Z,99106.30
2018-07-11T20:21:00.637Z,99102.55
2018-07-11T20:24:03.719Z,99101.12
2018-07-11T20:27:06.827Z,99107.40
2018-07-11T20:30:40.640Z,99115.92
2018-07-11T20:33:43.959Z,99111.75
2018-07-11T20:36:47.147Z,99112.03
2018-07-11T20:39:50.425Z,99108.97
2018-07-11T20:42:53.665Z,99108.86
2018-07-11T20:45:56.793Z,99105.11
2018-07-11T20:49:03.853Z,99105.61
2018-07-11T20:52:07.134Z,99104.30
2018-07-11T20:55:10.278Z,99110.38
2018-07-11T20:58:24.501Z,99105.22
2018-07-11T21:01:38.811Z,99104.91
2018-07-11T21:04:53.381Z,99114.02
2018-07-11T21:08:39.695Z,99111.41
2018-07-11T21:13:58.308Z,99112.72
2018-07-11T21:19:09.221Z,99116.06
2018-07-11T21:22:12.380Z,99109.92
2018-07-11T21:25:15.406Z,99115.34
2018-07-11T21:28:18.598Z,99126.55
2018-07-11T21:31:21.811Z,99118.48
2018-07-11T21:34:24.937Z,99120.61
2018-07-11T21:37:28.150Z,99113.62
2018-07-11T21:40:31.310Z,99118.89
2018-07-11T21:43:34.395Z,99122.84
2018-07-11T21:46:37.514Z,99116.87
2018-07-11T21:49:40.656Z,99114.02
2018-07-11T21:52:43.665Z,99110.56
2018-07-11T21:55:46.719Z,99108.43
2018-07-11T21:58:49.950Z,99108.82
2018-07-11T22:01:53.120Z,99112.08
2018-07-11T22:04:56.315Z,99112.50
2018-07-11T22:07:59.352Z,99110.17
2018-07-11T22:11:02.441Z,99107.95
2018-07-11T22:14:05.674Z,99114.73
2018-07-11T22:17:20.305Z,99106.22
2018-07-11T22:20:22.292Z,99101.73
2018-07-11T22:23:24.467Z,99101.20
2018-07-11T22:26:26.453Z,99109.48
2018-07-11T22:29:28.420Z,99100.66
2018-07-11T22:32:30.475Z,99102.36
2018-07-11T22:35:32.566Z,99093.65
2018-07-11T22:38:34.563Z,99089.39
2018-07-11T22:41:36.561Z,99090.02
2018-07-11T22:44:38.642Z,99094.58
2018-07-11T22:47:40.667Z,99095.93
2018-07-11T22:50:42.703Z,99101.03
2018-07-11T22:53:44.720Z,99098.88
2018-07-11T22:56:46.356Z,99098.33
2018-07-11T22:59:49.006Z,99100.06
2018-07-11T23:02:50.992Z,99099.27
2018-07-11T23:05:53.005Z,99103.45
2018-07-11T23:08:55.047Z,99102.66
2018-07-11T23:11:57.115Z,99098.00
2018-07-11T23:14:58.770Z,99101.64
2018-07-11T23:18:00.399Z,99097.89
2018-07-11T23:21:02.114Z,99095.43
2018-07-11T23:24:04.181Z,99101.29
2018-07-11T23:27:06.258Z,99095.19
2018-07-11T23:30:08.316Z,99092.34
2018-07-11T23:33:10.411Z,99093.55
2018-07-11T23:36:12.012Z,99098.82
2018-07-11T23:39:14.195Z,99091.62
2018-07-11T23:42:15.860Z,99090.92
2018-07-11T23:45:18.258Z,99096.30
2018-07-11T23:48:20.289Z,99098.12
2018-07-11T23:51:22.407Z,99091.11
2018-07-11T23:54:24.430Z,99088.79
2018-07-11T23:57:26.581Z,99094.05
